Time;durP1;ratioP1;P1;durP2;ratioP2;P2;SDS_P1;SDS_P2;PMS_P1;PMS_P2;Temp;Humidity;BMP_temperature;BMP_pressure;BME280_temperature;BME280_humidity;BME280_pressure;Samples;Min_cycle;Max_cycle;Signal;HPM_P1;HPM_P2
2023/08/21 00:02:21;;;;;;;31.98;28.83;;;;;;;22.17;84.58;98972.22;5051415;28;20041;-89
2023/08/21 00:04:47;;;;;;;30.35;27.25;;;;;;;22.13;85.64;98971.56;5054223;28;20033;-88
2023/08/21 00:07:13;;;;;;;29.73;26.73;;;;;;;22.20;86.15;98980.97;5052988;28;20041;-87
2023/08/21 00:09:38;;;;;;;28.55;25.75;;;;;;;22.23;86.05;98980.81;5054214;28;20064;-88
2023/08/21 00:12:06;;;;;;;29.88;26.98;;;;;;;22.29;86.14;98990.31;5054253;28;20127;-88
2023/08/21 00:14:32;;;;;;;30.02;27.02;;;;;;;22.35;86.31;98984.47;5058399;28;20045;-88
2023/08/21 00:16:58;;;;;;;31.88;28.77;;;;;;;22.41;85.63;98997.56;5049394;28;20372;-87
2023/08/21 00:19:24;;;;;;;29.80;26.80;;;;;;;22.40;86.26;98987.69;5051563;28;20049;-87
2023/08/21 00:21:49;;;;;;;30.48;27.23;;;;;;;22.30;85.85;98976.66;5087983;28;20127;-88
2023/08/21 00:24:15;;;;;;;30.10;27.13;;;;;;;22.40;86.13;98978.72;5052754;28;20033;-88
2023/08/21 00:26:41;;;;;;;31.75;28.42;;;;;;;22.36;86.60;98975.38;5055092;28;20090;-88
2023/08/21 00:29:08;;;;;;;33.30;29.90;;;;;;;22.32;86.74;98973.84;5059112;28;20098;-88
2023/08/21 00:31:34;;;;;;;33.28;29.90;;;;;;;22.29;87.36;98966.81;5057146;28;20506;-88
2023/08/21 00:34:00;;;;;;;31.88;28.73;;;;;;;22.52;84.30;98967.00;5058233;28;20110;-88
2023/08/21 00:36:25;;;;;;;30.73;27.80;;;;;;;22.82;82.77;98971.13;5059518;28;20036;-89
2023/08/21 00:38:51;;;;;;;32.33;29.33;;;;;;;22.79;82.06;98953.22;5059146;28;20021;-88
2023/08/21 00:41:17;;;;;;;32.30;28.95;;;;;;;23.18;79.71;98975.66;5057611;28;20041;-87
2023/08/21 00:43:43;;;;;;;33.38;30.35;;;;;;;23.45;77.50;98969.13;5057755;28;20068;-87
2023/08/21 00:46:10;;;;;;;32.55;29.55;;;;;;;23.67;75.98;98977.31;5051248;28;20067;-87
2023/08/21 00:48:36;;;;;;;33.30;30.08;;;;;;;23.66;75.68;98972.88;5056767;28;20128;-88
2023/08/21 00:51:02;;;;;;;35.00;31.58;;;;;;;23.61;76.54;98979.66;5057726;28;20040;-88
2023/08/21 00:53:28;;;;;;;34.28;31.27;;;;;;;23.55;76.41;98972.84;5057447;28;20033;-88
2023/08/21 00:55:54;;;;;;;32.97;29.90;;;;;;;23.54;75.93;98977.41;5055175;28;20083;-88
2023/08/21 00:58:20;;;;;;;35.95;32.60;;;;;;;23.43;76.40;98958.38;5059847;28;20064;-87
2023/08/21 01:00:49;;;;;;;36.60;33.33;;;;;;;23.30;78.70;98973.88;5058634;28;20048;-87
2023/08/21 01:03:16;;;;;;;37.10;33.63;;;;;;;23.19;79.44;98977.41;5055368;28;20040;-88
2023/08/21 01:05:42;;;;;;;37.40;33.80;;;;;;;23.07;79.95;98987.31;5059416;28;20044;-88
2023/08/21 01:08:14;;;;;;;37.08;33.72;;;;;;;22.92;81.38;98974.88;5061460;28;20086;-88
2023/08/21 01:10:46;;;;;;;36.97;33.67;;;;;;;22.79;82.96;98983.03;5053744;28;20506;-88
2023/08/21 01:13:22;;;;;;;34.83;31.48;;;;;;;22.56;83.39;98958.50;5054092;28;20095;-88
2023/08/21 01:15:50;;;;;;;38.13;34.72;;;;;;;22.53;84.55;98985.84;5055539;28;20469;-89
2023/08/21 01:18:19;;;;;;;35.17;32.15;;;;;;;22.39;85.25;98980.56;5054746;28;20410;-89
2023/08/21 01:20:45;;;;;;;;;;;;;;;22.28;87.51;98977.75;5057906;28;20052;-88
2023/08/21 01:23:28;;;;;;;1999.90;999.90;;;;;;;22.21;87.47;98976.44;5062444;28;20007;-88
2023/08/21 01:25:54;;;;;;;1999.90;999.90;;;;;;;22.11;88.10;98978.94;5055450;28;20040;-88
2023/08/21 01:28:20;;;;;;;1999.90;999.90;;;;;;;22.04;90.22;98983.91;5056615;28;20486;-88
2023/08/21 01:30:47;;;;;;;1999.90;999.90;;;;;;;21.99;90.44;98972.56;5053544;28;20024;-88
2023/08/21 01:33:15;;;;;;;1999.90;999.90;;;;;;;21.98;90.32;98976.22;5056124;28;20048;-88
2023/08/21 01:35:43;;;;;;;1999.90;999.90;;;;;;;21.89;90.57;98955.22;5055560;28;20041;-88
2023/08/21 01:38:09;;;;;;;1999.90;999.90;;;;;;;22.02;90.68;98977.75;5057542;28;20123;-87
2023/08/21 01:40:36;;;;;;;1999.90;999.90;;;;;;;22.28;87.58;98969.63;5057146;28;20741;-88
2023/08/21 01:43:01;;;;;;;1999.90;999.90;;;;;;;22.50;86.25;98966.22;5055508;28;20049;-88
2023/08/21 01:45:27;;;;;;;1999.90;999.90;;;;;;;22.62;84.74;98954.50;5051033;28;20036;-88
2023/08/21 01:47:53;;;;;;;1999.90;999.90;;;;;;;22.67;84.48;98957.72;5054934;28;20132;-88
2023/08/21 01:50:19;;;;;;;1999.90;999.90;;;;;;;22.87;83.31;98974.34;5058293;28;20064;-88
2023/08/21 01:52:45;;;;;;;1999.90;999.90;;;;;;;22.87;83.36;98971.66;5090521;28;20044;-88
2023/08/21 01:55:11;;;;;;;1999.90;999.90;;;;;;;22.88;83.01;98974.25;5053146;28;20048;-88
2023/08/21 01:57:38;;;;;;;1999.90;999.90;;;;;;;22.72;83.09;98952.81;5055354;28;20055;-88
2023/08/21 02:00:06;;;;;;;1999.90;999.90;;;;;;;22.86;82.83;98978.06;5056884;28;20040;-87
2023/08/21 02:02:32;;;;;;;1999.90;999.90;;;;;;;22.81;83.12;98962.09;5057647;28;20102;-88
2023/08/21 02:04:58;;;;;;;1999.90;999.90;;;;;;;22.86;82.56;98964.50;5053639;28;20482;-88
2023/08/21 02:07:24;;;;;;;1999.90;999.90;;;;;;;22.83;82.66;98967.44;5057572;28;20033;-88
2023/08/21 02:09:49;;;;;;;1999.90;999.90;;;;;;;22.71;83.69;98970.06;5055355;28;20040;-87
2023/08/21 02:12:15;;;;;;;1999.90;999.90;;;;;;;22.83;82.60;98968.28;5056602;28;20017;-88
2023/08/21 02:14:42;;;;;;;1999.90;999.90;;;;;;;22.86;82.09;98964.50;5089985;28;20611;-88
2023/08/21 02:17:08;;;;;;;1999.90;999.90;;;;;;;22.99;81.54;98970.75;5050877;28;20059;-88
2023/08/21 02:19:34;;;;;;;1999.90;999.90;;;;;;;23.05;80.79;98966.72;5056335;28;20131;-88
2023/08/21 02:22:00;;;;;;;1999.90;999.90;;;;;;;23.08;80.17;98959.22;5057738;28;20036;-88
2023/08/21 02:24:25;;;;;;;1999.90;999.90;;;;;;;22.98;80.02;98944.59;5058476;28;20032;-88
2023/08/21 02:26:51;;;;;;;1999.90;999.90;;;;;;;23.14;79.80;98969.63;5060112;28;20506;-88
2023/08/21 02:29:17;;;;;;;1999.90;999.90;;;;;;;22.95;80.19;98945.69;5058528;28;20068;-88
2023/08/21 02:31:44;;;;;;;1999.90;999.90;;;;;;;23.07;80.05;98962.91;5053450;28;20052;-88
2023/08/21 02:34:10;;;;;;;1999.90;999.90;;;;;;;23.07;79.65;98964.75;5053193;28;20037;-89
2023/08/21 02:36:35;;;;;;;1999.90;999.90;;;;;;;23.06;80.06;98965.75;5051279;28;20486;-88
2023/08/21 02:39:02;;;;;;;1999.90;999.90;;;;;;;22.98;80.40;98963.56;5055361;28;20041;-89
2023/08/21 02:41:28;;;;;;;1999.90;999.90;;;;;;;22.79;81.88;98968.63;5060001;28;20506;-88
2023/08/21 02:43:54;;;;;;;1999.90;999.90;;;;;;;22.73;82.03;98970.84;5055178;28;20057;-89
2023/08/21 02:46:20;;;;;;;1999.90;999.90;;;;;;;22.63;82.65;98968.91;5051489;28;20040;-87
2023/08/21 02:48:47;;;;;;;1999.90;999.90;;;;;;;22.67;82.57;98973.13;5057393;28;20041;-88
2023/08/21 02:51:13;;;;;;;1999.90;999.90;;;;;;;22.72;81.75;98962.81;5054998;28;20048;-88
2023/08/21 02:53:38;;;;;;;1999.90;999.90;;;;;;;22.77;82.17;98971.47;5085691;28;20037;-88
2023/08/21 02:56:04;;;;;;;1999.90;999.90;;;;;;;22.77;81.70;98964.19;5057021;28;20051;-89
2023/08/21 02:58:30;;;;;;;1999.90;999.90;;;;;;;22.68;81.72;98942.31;5055510;28;20131;-87
2023/08/21 03:00:57;;;;;;;1999.90;999.90;;;;;;;22.88;81.27;98973.38;5052950;28;20032;-88
2023/08/21 03:03:23;;;;;;;1999.90;999.90;;;;;;;22.76;80.78;98951.59;5049103;28;20051;-88
2023/08/21 03:05:50;;;;;;;1999.90;999.90;;;;;;;22.72;82.14;98971.78;5053473;28;20032;-89
2023/08/21 03:08:16;;;;;;;1999.90;999.90;;;;;;;22.61;82.47;98974.44;5053895;28;20123;-87
2023/08/21 03:10:42;;;;;;;1999.90;999.90;;;;;;;22.64;82.29;98976.06;5053454;28;20283;-89
2023/08/21 03:13:08;;;;;;;1999.90;999.90;;;;;;;22.56;82.82;98973.91;5056085;28;20032;-88
2023/08/21 03:15:34;;;;;;;1999.90;999.90;;;;;;;22.46;83.39;98970.13;5050411;28;20041;-88
2023/08/21 03:18:00;;;;;;;1999.90;999.90;;;;;;;22.35;84.14;98971.78;5054098;28;20503;-88
2023/08/21 03:20:26;;;;;;;1999.90;999.90;;;;;;;22.13;85.41;98949.91;5053447;28;20033;-90
2023/08/21 03:22:53;;;;;;;1999.90;999.90;;;;;;;22.26;85.35;98969.75;5050366;28;20043;-89
2023/08/21 03:25:19;;;;;;;1999.90;999.90;;;;;;;22.25;85.22;98964.41;5053574;28;20033;-88
2023/08/21 03:27:49;;;;;;;1999.90;999.90;;;;;;;22.21;85.80;98971.03;5054744;28;20043;-88
2023/08/21 03:30:15;;;;;;;1999.90;999.90;;;;;;;22.25;86.36;98977.97;5054582;28;20053;-90
2023/08/21 03:32:41;;;;;;;1999.90;999.90;;;;;;;22.15;86.38;98969.63;5051270;28;20164;-88
2023/08/21 03:35:07;;;;;;;1999.90;999.90;;;;;;;21.93;87.49;98968.44;5053247;28;20215;-88
2023/08/21 03:37:33;;;;;;;1999.90;999.90;;;;;;;21.92;88.45;98977.53;5053576;28;20144;-88
2023/08/21 03:40:01;;;;;;;1999.90;999.90;;;;;;;21.87;89.09;98976.97;5054829;28;20132;-88
2023/08/21 03:42:27;;;;;;;1999.90;999.90;;;;;;;21.71;90.74;98984.47;5052252;28;20049;-88
2023/08/21 03:44:53;;;;;;;1999.90;999.90;;;;;;;21.61;92.17;98981.50;5054257;28;20052;-88
2023/08/21 03:47:19;;;;;;;1999.90;999.90;;;;;;;21.55;92.53;98965.69;5051839;28;20039;-88
2023/08/21 03:49:45;;;;;;;1999.90;999.90;;;;;;;21.64;92.74;98966.88;5062647;28;20060;-89
2023/08/21 03:52:10;;;;;;;1999.90;999.90;;;;;;;21.68;92.84;98966.56;5055213;28;20041;-87
2023/08/21 03:54:36;;;;;;;1999.90;999.90;;;;;;;21.79;91.93;98955.00;5060055;28;20075;-87
2023/08/21 03:57:03;;;;;;;1999.90;999.90;;;;;;;21.92;91.90;98963.13;5057790;28;20125;-89
2023/08/21 03:59:29;;;;;;;1999.90;999.90;;;;;;;22.12;90.57;98954.47;5055349;28;20391;-89
2023/08/21 04:01:55;;;;;;;1999.90;999.90;;;;;;;22.43;87.73;98946.84;5053250;28;20063;-88
2023/08/21 04:04:21;;;;;;;1999.90;999.90;;;;;;;22.59;87.07;98973.69;5055559;28;20037;-88
2023/08/21 04:06:47;;;;;;;1999.90;999.90;;;;;;;22.60;86.67;98967.28;5061269;28;20041;-87
2023/08/21 04:09:12;;;;;;;1999.90;999.90;;;;;;;22.63;86.53;98968.91;5056759;28;20239;-88
2023/08/21 04:11:38;;;;;;;1999.90;999.90;;;;;;;22.35;87.37;98946.53;5055694;28;20109;-88
2023/08/21 04:14:05;;;;;;;1999.90;999.90;;;;;;;22.55;86.94;98980.28;5054392;28;20071;-89
2023/08/21 04:16:31;;;;;;;1999.90;999.90;;;;;;;22.46;87.37;98986.41;5054004;28;20132;-88
2023/08/21 04:18:57;;;;;;;1999.90;999.90;;;;;;;22.38;88.31;98988.78;5052728;28;20132;-88
2023/08/21 04:21:23;;;;;;;1999.90;999.90;;;;;;;22.27;89.18;98985.03;5056545;28;20041;-88
2023/08/21 04:23:49;;;;;;;1999.90;999.90;;;;;;;22.17;89.28;98962.25;5057488;28;20368;-88
2023/08/21 04:26:15;;;;;;;1999.90;999.90;;;;;;;22.27;89.39;98986.84;5058191;28;20044;-88
2023/08/21 04:28:41;;;;;;;1999.90;999.90;;;;;;;22.25;90.45;98988.81;5059914;28;20040;-88
2023/08/21 04:31:08;;;;;;;1999.90;999.90;;;;;;;22.18;91.20;98988.34;5052509;28;20406;-89
2023/08/21 04:33:35;;;;;;;1999.90;999.90;;;;;;;22.19;91.40;98986.53;5057296;28;20047;-88
2023/08/21 04:36:01;;;;;;;1999.90;999.90;;;;;;;22.25;91.26;98989.69;5059028;28;20132;-88
2023/08/21 04:38:27;;;;;;;1999.90;999.90;;;;;;;22.31;91.21;98980.25;5057504;28;20045;-88
2023/08/21 04:40:52;;;;;;;1999.90;999.90;;;;;;;22.40;90.50;98987.69;5056292;28;20281;-89
2023/08/21 04:43:18;;;;;;;1999.90;999.90;;;;;;;22.46;89.80;98986.41;5055501;28;20045;-87
2023/08/21 04:45:48;;;;;;;1999.90;999.90;;;;;;;22.38;90.37;98986.06;5055315;28;20517;-88
2023/08/21 04:48:15;;;;;;;1999.90;999.90;;;;;;;22.45;89.90;98990.09;5061720;28;20835;-88
2023/08/21 04:50:41;;;;;;;1999.90;999.90;;;;;;;22.40;90.83;98995.81;5056102;28;20096;-89
2023/08/21 04:53:07;;;;;;;1999.90;999.90;;;;;;;22.43;90.57;98994.75;5057028;28;20045;-88
2023/08/21 04:55:32;;;;;;;1999.90;999.90;;;;;;;22.40;90.45;98998.53;5057781;28;20045;-88
2023/08/21 04:57:58;;;;;;;1999.90;999.90;;;;;;;22.29;91.78;99003.88;5057571;28;20175;-88
2023/08/21 05:00:24;;;;;;;1999.90;999.90;;;;;;;22.25;92.00;99008.66;5054449;28;20056;-90
2023/08/21 05:02:50;;;;;;;1999.90;999.90;;;;;;;22.12;92.10;98981.53;5058105;28;20498;-89
2023/08/21 05:05:17;;;;;;;1999.90;999.90;;;;;;;22.23;92.02;99005.19;5059519;28;20048;-88
2023/08/21 05:07:43;;;;;;;1999.90;999.90;;;;;;;22.25;92.23;99003.25;5053508;28;20041;-89
2023/08/21 05:10:09;;;;;;;1999.90;999.90;;;;;;;22.24;92.65;99017.75;5054908;28;20579;-88
2023/08/21 05:12:35;;;;;;;1999.90;999.90;;;;;;;22.26;93.96;99014.94;5056775;28;20498;-88
2023/08/21 05:15:01;;;;;;;1999.90;999.90;;;;;;;22.31;93.96;99018.16;5056428;28;20501;-88
2023/08/21 05:17:28;;;;;;;1999.90;999.90;;;;;;;22.37;94.55;99012.31;5056105;28;20037;-88
2023/08/21 05:19:54;;;;;;;1999.90;999.90;;;;;;;22.45;94.23;99020.78;5054698;28;20106;-88
2023/08/21 05:22:21;;;;;;;1999.90;999.90;;;;;;;22.55;94.29;99020.94;5058786;28;20049;-89
2023/08/21 05:24:47;;;;;;;1999.90;999.90;;;;;;;22.53;93.53;99003.94;5059241;28;20055;-88
2023/08/21 05:27:13;;;;;;;1999.90;999.90;;;;;;;22.70;93.02;99019.84;5057283;28;20045;-88
2023/08/21 05:29:39;;;;;;;1999.90;999.90;;;;;;;22.75;92.75;99009.53;5055871;28;20041;-89
2023/08/21 05:32:05;;;;;;;1999.90;999.90;;;;;;;22.86;91.91;99007.88;5049069;28;20047;-89
2023/08/21 05:34:31;;;;;;;1999.90;999.90;;;;;;;23.00;91.45;99020.41;5057507;28;20037;-89
2023/08/21 05:36:56;;;;;;;1999.90;999.90;;;;;;;23.07;91.20;99010.88;5059664;28;20036;-91
2023/08/21 05:39:24;;;;;;;1999.90;999.90;;;;;;;23.12;90.75;99009.56;5061148;28;20041;-93
2023/08/21 05:41:50;;;;;;;1999.90;999.90;;;;;;;23.30;90.81;99006.44;5054490;28;20513;-92
2023/08/21 05:44:16;;;;;;;1999.90;999.90;;;;;;;23.58;89.12;99014.19;5057831;28;20045;-91
2023/08/21 05:46:41;;;;;;;1999.90;999.90;;;;;;;23.67;88.12;98999.03;5057610;28;20037;-93
2023/08/21 05:49:07;;;;;;;1999.90;999.90;;;;;;;23.76;87.70;98997.50;5061428;28;20134;-93
2023/08/21 05:51:34;;;;;;;1999.90;999.90;;;;;;;23.99;87.01;99025.59;5058604;28;20041;-92
2023/08/21 05:53:59;;;;;;;1999.90;999.90;;;;;;;24.08;86.04;99024.00;5054966;28;20041;-93
2023/08/21 05:56:28;;;;;;;1999.90;999.90;;;;;;;24.22;85.54;99018.31;5056890;28;20118;-92
2023/08/21 05:58:53;;;;;;;1999.90;999.90;;;;;;;24.26;84.72;99021.66;5059461;28;20044;-93
2023/08/21 06:01:19;;;;;;;1999.90;999.90;;;;;;;24.50;84.09;99027.00;5056221;28;20047;-91
2023/08/21 06:03:45;;;;;;;1999.90;999.90;;;;;;;24.39;84.35;99011.53;5054768;28;20041;-91
2023/08/21 06:06:11;;;;;;;1999.90;999.90;;;;;;;24.33;84.28;98995.72;5056093;28;20036;-92
2023/08/21 06:08:37;;;;;;;1999.90;999.90;;;;;;;24.49;84.21;99030.75;5058751;28;20114;-92
2023/08/21 06:11:02;;;;;;;1999.90;999.90;;;;;;;24.48;83.54;99008.09;5058708;28;20045;-92
2023/08/21 06:13:30;;;;;;;1999.90;999.90;;;;;;;24.84;82.26;99029.72;5057740;28;20064;-92
2023/08/21 06:15:56;;;;;;;1999.90;999.90;;;;;;;24.96;81.57;99017.81;5055444;28;20882;-90
2023/08/21 06:18:22;;;;;;;1999.90;999.90;;;;;;;25.19;78.93;99019.53;5058695;28;20052;-94
2023/08/21 06:20:48;;;;;;;1999.90;999.90;;;;;;;25.33;79.07;99028.38;5058793;28;20133;-90
2023/08/21 06:23:14;;;;;;;1999.90;999.90;;;;;;;25.37;78.61;99032.59;5058631;28;20037;-92
2023/08/21 06:25:44;;;;;;;1999.90;999.90;;;;;;;25.53;77.26;99027.59;5061390;28;20479;-91
2023/08/21 06:28:10;;;;;;;1999.90;999.90;;;;;;;25.38;78.53;99029.75;5058104;28;20044;-91
2023/08/21 06:30:37;;;;;;;1999.90;999.90;;;;;;;25.55;77.67;99049.25;5057507;28;20512;-93
2023/08/21 06:33:06;;;;;;;1999.90;999.90;;;;;;;25.61;76.89;99040.53;5093341;28;20037;-94
2023/08/21 06:35:31;;;;;;;1999.90;999.90;;;;;;;25.57;77.02;99053.56;5056208;28;20037;-93
2023/08/21 06:37:58;;;;;;;1999.90;999.90;;;;;;;25.66;77.43;99045.63;5062866;28;20094;-92
2023/08/21 06:40:24;;;;;;;1999.90;999.90;;;;;;;25.88;76.19;99039.19;5062940;28;20445;-93
2023/08/21 06:42:50;;;;;;;1999.90;999.90;;;;;;;25.87;75.85;99035.56;5059774;28;20098;-94
2023/08/21 06:45:19;;;;;;;1999.90;999.90;;;;;;;25.88;75.89;99039.19;5058752;28;20582;-92
2023/08/21 06:47:47;;;;;;;1999.90;999.90;;;;;;;25.91;76.04;99034.34;5065328;28;20045;-93
2023/08/21 06:50:13;;;;;;;1999.90;999.90;;;;;;;25.91;75.82;99039.78;5055300;28;20072;-93
2023/08/21 06:52:39;;;;;;;1999.90;999.90;;;;;;;26.09;75.43;99053.72;5102956;28;20060;-93
2023/08/21 06:55:06;;;;;;;1999.90;999.90;;;;;;;26.36;74.67;99044.97;5058418;28;20128;-93
2023/08/21 06:57:32;;;;;;;1999.90;999.90;;;;;;;26.01;74.60;99040.75;5054101;28;20039;-92
2023/08/21 06:59:58;;;;;;;1999.90;999.90;;;;;;;26.16;75.08;99054.03;5056158;28;20473;-92
2023/08/21 07:02:24;;;;;;;1999.90;999.90;;;;;;;26.21;74.70;99041.72;5057801;28;20040;-93
2023/08/21 07:04:51;;;;;;;1999.90;999.90;;;;;;;26.38;74.22;99042.09;5054837;28;20040;-94
2023/08/21 07:07:17;;;;;;;1999.90;999.90;;;;;;;26.69;73.01;99039.41;5052113;28;20043;-93
2023/08/21 07:09:43;;;;;;;1999.90;999.90;;;;;;;26.93;73.36;99039.06;5057201;28;20542;-90
2023/08/21 07:12:09;;;;;;;1999.90;999.90;;;;;;;26.67;72.18;99041.41;5062090;28;20058;-92
2023/08/21 07:14:34;;;;;;;1999.90;999.90;;;;;;;26.86;72.02;99037.91;5059204;28;20037;-92
2023/08/21 07:17:00;;;;;;;1999.90;999.90;;;;;;;26.88;72.12;99033.16;5059039;28;20071;-93
2023/08/21 07:19:26;;;;;;;1999.90;999.90;;;;;;;27.24;70.85;99048.94;5059129;28;20038;-93
2023/08/21 07:21:54;;;;;;;1999.90;999.90;;;;;;;27.12;69.91;99041.84;5054551;28;20434;-93
2023/08/21 07:24:21;;;;;;;1999.90;999.90;;;;;;;27.23;70.02;99049.94;5055406;28;20044;-93
2023/08/21 07:26:47;;;;;;;1999.90;999.90;;;;;;;27.09;70.41;99030.34;5049832;28;20568;-93
2023/08/21 07:29:13;;;;;;;1999.90;999.90;;;;;;;27.09;70.83;99046.72;5051735;28;20041;-94
2023/08/21 07:31:39;;;;;;;1999.90;999.90;;;;;;;27.15;70.00;99030.66;5063792;28;20508;-93
2023/08/21 07:34:05;;;;;;;1999.90;999.90;;;;;;;27.43;69.14;99033.59;5057352;28;20048;-93
2023/08/21 07:36:31;;;;;;;1999.90;999.90;;;;;;;27.58;68.48;99031.28;5057165;28;20033;-95
2023/08/21 07:38:59;;;;;;;1999.90;999.90;;;;;;;27.96;66.55;99046.84;5060683;28;20087;-95
2023/08/21 07:41:25;;;;;;;1999.90;999.90;;;;;;;27.85;68.58;99030.63;5059710;28;20049;-94
2023/08/21 07:43:50;;;;;;;1999.90;999.90;;;;;;;28.08;67.69;99043.94;5074362;28;20102;-93
2023/08/21 07:46:18;;;;;;;1999.90;999.90;;;;;;;28.32;65.39;99047.06;5045035;28;20041;-94
2023/08/21 07:48:44;;;;;;;1999.90;999.90;;;;;;;27.97;67.27;99040.34;5056410;28;20048;-95
2023/08/21 07:51:10;;;;;;;1999.90;999.90;;;;;;;28.03;67.30;99047.97;5054644;28;20041;-94
2023/08/21 07:53:36;;;;;;;1999.90;999.90;;;;;;;28.06;67.62;99039.50;5054642;28;20041;-96
2023/08/21 07:56:05;;;;;;;1999.90;999.90;;;;;;;28.45;64.44;99042.16;5055465;28;20504;-94
2023/08/21 07:58:31;;;;;;;1999.90;999.90;;;;;;;28.61;63.78;99036.06;5069887;28;20052;-93
2023/08/21 08:00:58;;;;;;;1999.90;999.90;;;;;;;28.66;64.15;99044.69;5058246;28;20047;-96
2023/08/21 08:03:27;;;;;;;1999.90;999.90;;;;;;;28.68;62.88;99033.59;5055036;28;20053;-94
2023/08/21 08:05:53;;;;;;;1999.90;999.90;;;;;;;28.83;62.18;99023.00;5054585;28;20113;-94
2023/08/21 08:08:18;;;;;;;1999.90;999.90;;;;;;;28.78;62.46;99036.25;5054110;28;20151;-92
2023/08/21 08:10:44;;;;;;;1999.90;999.90;;;;;;;29.00;62.78;99033.13;5052866;28;20041;-94
2023/08/21 08:13:12;;;;;;;1999.90;999.90;;;;;;;29.28;59.53;99016.72;5053645;28;20398;-93
2023/08/21 08:15:38;;;;;;;1999.90;999.90;;;;;;;29.37;59.11;99028.63;5054319;28;20033;-92
2023/08/21 08:18:05;;;;;;;1999.90;999.90;;;;;;;29.27;60.39;99037.75;5060767;28;20037;-95
2023/08/21 08:20:31;;;;;;;1999.90;999.90;;;;;;;29.64;59.04;99041.38;5049825;28;20510;-93
2023/08/21 08:22:57;;;;;;;1999.90;999.90;;;;;;;29.52;59.03;99040.75;5060422;28;20048;-93
2023/08/21 08:25:23;;;;;;;1999.90;999.90;;;;;;;29.63;57.17;99031.44;5053910;28;20495;-94
2023/08/21 08:27:49;;;;;;;1999.90;999.90;;;;;;;29.79;57.72;99037.09;5053831;28;20041;-96
2023/08/21 08:30:17;;;;;;;1999.90;999.90;;;;;;;30.04;56.60;99043.66;5062263;28;20045;-94
2023/08/21 08:32:44;;;;;;;1999.90;999.90;;;;;;;30.20;56.43;99033.81;5056910;28;20480;-93
2023/08/21 08:35:11;;;;;;;1999.90;999.90;;;;;;;30.08;56.02;99041.47;5055419;28;20036;-92
2023/08/21 08:37:36;;;;;;;1999.90;999.90;;;;;;;29.76;57.36;99023.72;5055806;28;20106;-91
2023/08/21 08:40:03;;;;;;;1999.90;999.90;;;;;;;30.21;56.20;99032.78;5054634;28;20045;-92
2023/08/21 08:42:30;;;;;;;1999.90;999.90;;;;;;;30.54;54.47;99024.81;5053612;28;20449;-93
2023/08/21 08:44:57;;;;;;;1999.90;999.90;;;;;;;30.86;52.32;99019.53;5055477;28;20051;-92
2023/08/21 08:47:25;;;;;;;1999.90;999.90;;;;;;;31.13;49.90;99027.69;5056866;28;20131;-92
2023/08/21 08:49:51;;;;;;;;;;;;;;;30.98;50.07;99028.31;5063718;28;21373;-92
2023/08/21 08:52:18;;;;;;;1999.90;999.90;;;;;;;30.71;48.17;99015.66;5057375;28;19921;-93
2023/08/21 08:54:45;;;;;;;1999.90;999.90;;;;;;;30.56;49.07;99026.38;5065866;28;20049;-93
2023/08/21 08:57:11;;;;;;;1999.90;999.90;;;;;;;30.50;48.22;99022.38;5058124;28;20032;-93
2023/08/21 08:59:36;;;;;;;1999.90;999.90;;;;;;;30.59;48.28;99019.69;5059107;28;20040;-93
2023/08/21 09:02:02;;;;;;;1999.90;999.90;;;;;;;30.65;47.95;99010.81;5055035;28;20509;-91
2023/08/21 09:04:30;;;;;;;1999.90;999.90;;;;;;;30.88;49.97;99017.47;5061542;28;20032;-93
2023/08/21 09:07:06;;;;;;;1999.90;999.90;;;;;;;31.05;48.37;99017.50;5059504;28;20040;-93
2023/08/21 09:09:37;;;;;;;1999.90;999.90;;;;;;;30.76;48.15;99010.50;5055276;28;20033;-93
2023/08/21 09:12:10;;;;;;;1999.90;999.90;;;;;;;30.77;48.46;99019.59;5062045;28;20037;-94
2023/08/21 09:14:36;;;;;;;1999.90;999.90;;;;;;;30.95;49.00;99016.78;5056129;28;20052;-93
2023/08/21 09:17:03;;;;;;;1999.90;999.90;;;;;;;31.07;48.32;99024.56;5058445;28;20048;-93
2023/08/21 09:19:31;;;;;;;1999.90;999.90;;;;;;;30.98;47.44;99019.22;5063367;28;20482;-93
2023/08/21 09:21:57;;;;;;;1999.90;999.90;;;;;;;31.00;47.32;99000.69;5059136;28;20074;-93
2023/08/21 09:24:23;;;;;;;1999.90;999.90;;;;;;;31.13;46.83;99009.31;5054363;28;20052;-93
2023/08/21 09:26:50;;;;;;;1999.90;999.90;;;;;;;30.93;47.11;98996.91;5056326;28;20040;-92
2023/08/21 09:29:15;;;;;;;32.08;29.40;;;;;;;31.06;47.86;99002.75;5061703;28;20045;-93
2023/08/21 09:31:43;;;;;;;32.20;29.33;;;;;;;31.11;46.99;99011.34;5056743;28;20726;-93
2023/08/21 09:34:09;;;;;;;32.70;29.70;;;;;;;31.44;46.02;99001.31;5056586;28;20040;-92
2023/08/21 09:36:39;;;;;;;31.80;29.10;;;;;;;31.82;45.56;99015.44;5057739;28;20136;-94
2023/08/21 09:39:06;;;;;;;33.15;30.08;;;;;;;31.68;45.50;98981.22;5055209;28;20102;-92
2023/08/21 09:41:32;;;;;;;32.67;29.88;;;;;;;31.79;46.07;98995.66;5059081;28;20090;-92
2023/08/21 09:43:59;;;;;;;33.75;30.90;;;;;;;31.58;45.90;99001.69;5057287;28;20086;-92
2023/08/21 09:46:26;;;;;;;31.88;29.00;;;;;;;31.91;45.57;98999.81;5055603;28;20053;-92
2023/08/21 09:48:53;;;;;;;31.65;28.95;;;;;;;31.82;45.47;98995.34;5060295;28;20041;-93
2023/08/21 09:51:20;;;;;;;33.28;30.40;;;;;;;31.94;45.00;98996.69;5058419;28;20091;-93
2023/08/21 09:53:48;;;;;;;31.13;28.52;;;;;;;32.13;45.97;98985.34;5056318;28;20050;-94
2023/08/21 09:56:14;;;;;;;;;;;;;;;32.35;44.42;98999.41;5060081;28;20048;-94
2023/08/21 09:58:40;;;;;;;524.83;272.73;;;;;;;32.42;43.89;98985.81;5060631;28;19935;-93
2023/08/21 10:01:11;;;;;;;1999.90;999.90;;;;;;;32.19;42.81;98996.72;5056747;28;20037;-92
2023/08/21 10:03:40;;;;;;;1999.90;999.90;;;;;;;31.91;42.49;98980.56;5056712;28;20483;-92
2023/08/21 10:06:08;;;;;;;33.70;31.20;;;;;;;32.00;43.87;98974.03;5061125;28;20029;-92
2023/08/21 10:08:38;;;;;;;32.92;30.42;;;;;;;32.09;43.76;98986.75;5059757;28;20044;-94
2023/08/21 10:11:06;;;;;;;33.75;30.73;;;;;;;31.95;43.67;98992.06;5056107;28;20090;-93
2023/08/21 10:13:33;;;;;;;30.92;28.55;;;;;;;32.33;42.81;98979.47;5056638;28;20128;-94
2023/08/21 10:16:00;;;;;;;31.45;29.02;;;;;;;32.40;42.68;98986.00;5054118;28;20040;-93
2023/08/21 10:18:30;;;;;;;34.28;31.48;;;;;;;32.48;42.04;98983.22;5063787;28;20056;-92
2023/08/21 10:21:09;;;;;;;1999.90;999.90;;;;;;;32.45;41.17;98975.31;5057733;28;20091;-93
2023/08/21 10:23:37;;;;;;;1999.90;999.90;;;;;;;32.31;41.43;98976.03;5056100;28;20490;-92
2023/08/21 10:26:08;;;;;;;32.83;30.30;;;;;;;32.32;41.82;98972.25;5059409;28;20056;-94
2023/08/21 10:28:48;;;;;;;32.85;30.27;;;;;;;32.60;43.08;98980.13;5063002;28;20451;-92
2023/08/21 10:31:28;;;;;;;33.85;31.27;;;;;;;32.81;41.65;98985.00;5058372;28;20110;-94
2023/08/21 10:33:54;;;;;;;33.15;30.75;;;;;;;32.40;41.74;98975.00;5059738;28;20041;-95
2023/08/21 10:36:52;;;;;;;34.20;31.80;;;;;;;32.56;41.91;98970.50;5057027;28;20049;-92
2023/08/21 10:39:20;;;;;;;32.47;29.98;;;;;;;32.23;42.40;98967.81;5056090;28;20037;-94
2023/08/21 10:41:55;;;;;;;;;;;;;;;32.30;42.32;98971.56;5057914;28;20072;-93
2023/08/21 10:44:34;;;;;;;33.40;30.83;;;;;;;32.47;41.79;98969.66;5054947;28;20286;-93
2023/08/21 10:47:13;;;;;;;33.60;31.20;;;;;;;32.00;42.28;98963.03;5050888;28;20129;-92
2023/08/21 10:49:39;;;;;;;32.15;29.63;;;;;;;32.41;42.60;98962.09;5056360;28;20044;-93
2023/08/21 10:52:06;;;;;;;32.80;30.40;;;;;;;32.65;40.57;98958.41;5058788;28;20071;-94
2023/08/21 10:54:42;;;;;;;31.48;29.05;;;;;;;32.49;41.36;98964.81;5056494;28;20090;-92
2023/08/21 10:57:10;;;;;;;32.78;30.35;;;;;;;32.45;41.88;98953.28;5055485;28;20041;-92
2023/08/21 10:59:36;;;;;;;32.60;30.00;;;;;;;32.19;41.80;98955.44;5055891;28;20490;-93
2023/08/21 11:02:03;;;;;;;32.35;29.98;;;;;;;32.26;41.68;98954.56;5057038;28;20079;-94